createdAt,value
2018-12-08T00:00:37.848Z,28.03
2018-12-08T00:03:06.608Z,29.83
2018-12-08T00:05:35.267Z,24.57
2018-12-08T00:08:03.951Z,31.70
2018-12-08T00:10:32.595Z,34.33
2018-12-08T00:13:01.216Z,29.40
2018-12-08T00:15:29.873Z,32.10
2018-12-08T00:17:58.490Z,35.13
2018-12-08T00:20:27.624Z,35.23
2018-12-08T00:22:56.271Z,25.77
2018-12-08T00:25:24.902Z,27.27
2018-12-08T00:27:53.526Z,43.17
2018-12-08T00:30:33.198Z,19.27
2018-12-08T00:33:01.827Z,22.90
2018-12-08T00:35:30.454Z,19.57
2018-12-08T00:37:59.099Z,12.50
2018-12-08T00:40:27.723Z,17.77
2018-12-08T00:42:56.372Z,25.43
2018-12-08T00:45:25.023Z,20.50
2018-12-08T00:47:53.666Z,38.27
2018-12-08T00:50:22.272Z,22.87
2018-12-08T00:52:50.967Z,37.17
2018-12-08T00:55:19.613Z,23.93
2018-12-08T00:57:48.242Z,20.60
2018-12-08T01:00:17.032Z,33.17
2018-12-08T01:02:45.629Z,28.57
2018-12-08T01:05:14.338Z,33.37
2018-12-08T01:07:42.986Z,27.70
2018-12-08T01:10:11.623Z,38.13
2018-12-08T01:12:40.273Z,35.40
2018-12-08T01:15:08.953Z,24.60
2018-12-08T01:17:37.570Z,31.97
2018-12-08T01:20:06.448Z,33.67
2018-12-08T01:22:35.091Z,25.77
2018-12-08T01:25:04.712Z,29.07
2018-12-08T01:27:33.355Z,24.03
2018-12-08T01:30:01.977Z,23.23
2018-12-08T01:32:30.606Z,25.87
2018-12-08T01:34:59.227Z,24.47
2018-12-08T01:37:27.861Z,34.87
2018-12-08T01:39:56.482Z,20.50
2018-12-08T01:42:25.110Z,27.67
2018-12-08T01:44:53.728Z,22.50
2018-12-08T01:47:22.373Z,28.03
2018-12-08T01:49:50.977Z,28.33
2018-12-08T01:52:19.612Z,32.03
2018-12-08T01:54:48.251Z,27.10
2018-12-08T01:57:16.911Z,31.00
2018-12-08T01:59:45.605Z,26.73
2018-12-08T02:02:14.266Z,27.57
2018-12-08T02:04:42.933Z,33.97
2018-12-08T02:07:11.622Z,26.57
2018-12-08T02:09:40.278Z,27.33
2018-12-08T02:12:08.918Z,17.10
2018-12-08T02:14:37.621Z,25.00
2018-12-08T02:17:06.290Z,28.37
2018-12-08T02:19:34.964Z,28.60
2018-12-08T02:22:03.638Z,43.70
2018-12-08T02:24:32.262Z,37.67
2018-12-08T02:27:01.769Z,34.90
2018-12-08T02:29:30.445Z,42.90
2018-12-08T02:31:59.116Z,40.67
2018-12-08T02:34:27.796Z,25.50
2018-12-08T02:36:56.481Z,36.13
2018-12-08T02:39:25.113Z,26.63
2018-12-08T02:41:53.773Z,55.33
2018-12-08T02:44:22.425Z,29.87
2018-12-08T02:46:51.084Z,24.97
2018-12-08T02:49:19.760Z,31.70
2018-12-08T02:51:48.428Z,41.50
2018-12-08T02:54:17.090Z,29.80
2018-12-08T02:56:45.745Z,28.93
2018-12-08T02:59:14.434Z,43.73
2018-12-08T03:01:43.093Z,37.90
2018-12-08T03:04:11.797Z,23.93
2018-12-08T03:06:40.469Z,32.47
2018-12-08T03:09:09.738Z,29.80
2018-12-08T03:11:38.420Z,43.87
2018-12-08T03:14:07.080Z,44.50
2018-12-08T03:16:35.734Z,32.13
2018-12-08T03:19:04.366Z,43.87
2018-12-08T03:21:33.004Z,47.53
2018-12-08T03:24:01.663Z,37.90
2018-12-08T03:26:30.309Z,36.83
2018-12-08T03:28:58.933Z,36.83
2018-12-08T03:31:27.568Z,43.13
2018-12-08T03:33:56.210Z,32.13
2018-12-08T03:36:24.839Z,47.50
2018-12-08T03:38:53.462Z,37.80
2018-12-08T03:41:22.112Z,28.83
2018-12-08T03:43:50.763Z,41.83
2018-12-08T03:46:19.411Z,26.87
2018-12-08T03:48:48.058Z,30.13
2018-12-08T03:51:16.708Z,38.47
2018-12-08T03:53:45.385Z,30.67
2018-12-08T03:56:14.038Z,42.17
2018-12-08T03:58:42.676Z,37.97
2018-12-08T04:01:11.314Z,49.47
2018-12-08T04:03:39.941Z,41.37
2018-12-08T04:06:08.622Z,44.93
2018-12-08T04:08:37.351Z,56.00
2018-12-08T04:11:06.041Z,38.93
2018-12-08T04:13:34.724Z,36.20
2018-12-08T04:16:03.389Z,38.43
2018-12-08T04:18:32.068Z,33.60
2018-12-08T04:21:00.689Z,41.10
2018-12-08T04:23:29.321Z,45.60
2018-12-08T04:25:57.929Z,29.07
2018-12-08T04:28:26.554Z,34.63
2018-12-08T04:30:55.164Z,35.73
2018-12-08T04:33:23.932Z,51.47
2018-12-08T04:35:54.648Z,49.77
2018-12-08T04:38:23.254Z,37.07
2018-12-08T04:40:51.902Z,38.03
2018-12-08T04:43:20.560Z,37.83
2018-12-08T04:45:49.279Z,46.77
2018-12-08T04:48:17.946Z,46.03
2018-12-08T04:50:46.578Z,45.63
2018-12-08T04:53:15.226Z,45.30
2018-12-08T04:55:43.923Z,44.93
2018-12-08T04:58:12.635Z,39.50
2018-12-08T05:00:41.327Z,38.57
2018-12-08T05:03:10.048Z,50.03
2018-12-08T05:05:38.733Z,35.23
2018-12-08T05:08:07.358Z,43.40
2018-12-08T05:10:35.991Z,63.20
2018-12-08T05:13:04.600Z,54.10
2018-12-08T05:15:33.293Z,63.57
2018-12-08T05:18:01.991Z,48.70
2018-12-08T05:20:30.603Z,35.30
2018-12-08T05:22:59.269Z,55.07
2018-12-08T05:25:27.923Z,48.33
2018-12-08T05:27:56.619Z,56.53
2018-12-08T05:30:25.784Z,58.80
2018-12-08T05:32:54.445Z,55.83
2018-12-08T05:35:23.122Z,41.67
2018-12-08T05:37:51.784Z,50.67
2018-12-08T05:40:20.423Z,37.10
2018-12-08T05:42:49.070Z,50.20
2018-12-08T05:45:17.733Z,45.40
2018-12-08T05:47:46.386Z,59.10
2018-12-08T05:50:15.029Z,58.07
2018-12-08T05:52:43.659Z,33.73
2018-12-08T05:55:12.338Z,43.90
2018-12-08T05:57:41.018Z,38.27
2018-12-08T06:00:09.941Z,48.30
2018-12-08T06:02:38.610Z,35.50
2018-12-08T06:05:08.005Z,39.10
2018-12-08T06:07:36.666Z,43.73
2018-12-08T06:10:05.622Z,42.77
2018-12-08T06:12:34.266Z,53.30
2018-12-08T06:15:02.905Z,32.83
2018-12-08T06:17:31.565Z,41.23
2018-12-08T06:20:00.206Z,42.17
2018-12-08T06:22:28.858Z,49.73
2018-12-08T06:24:57.538Z,45.70
2018-12-08T06:28:03.348Z,40.80
2018-12-08T06:30:32.002Z,41.40
2018-12-08T06:33:00.640Z,46.27
2018-12-08T06:35:29.292Z,37.23
2018-12-08T06:37:57.943Z,35.93
2018-12-08T06:40:29.388Z,33.13
2018-12-08T06:42:57.219Z,35.03
2018-12-08T06:45:25.889Z,29.07
2018-12-08T06:47:54.507Z,47.10
2018-12-08T06:50:24.109Z,35.17
2018-12-08T06:52:52.758Z,36.13
2018-12-08T06:55:21.395Z,44.07
2018-12-08T06:57:50.023Z,38.23
2018-12-08T07:00:20.696Z,34.63
2018-12-08T07:02:49.334Z,31.70
2018-12-08T07:05:18.991Z,32.50
2018-12-08T07:07:47.640Z,31.90
2018-12-08T07:10:16.329Z,24.40
2018-12-08T07:12:44.978Z,47.43
2018-12-08T07:15:13.597Z,49.73
2018-12-08T07:17:42.275Z,38.30
2018-12-08T07:20:10.915Z,31.43
2018-12-08T07:22:39.753Z,42.20
2018-12-08T07:25:08.531Z,31.83
2018-12-08T07:27:37.179Z,24.63
2018-12-08T07:30:08.140Z,39.57
2018-12-08T07:32:38.956Z,33.47
2018-12-08T07:35:08.308Z,40.47
2018-12-08T07:37:37.062Z,41.70
2018-12-08T07:40:07.557Z,40.53
2018-12-08T07:42:36.194Z,34.83
2018-12-08T07:45:05.380Z,37.83
2018-12-08T07:47:34.032Z,37.47
2018-12-08T07:50:02.659Z,39.30
2018-12-08T07:52:31.509Z,32.07
2018-12-08T07:55:00.150Z,32.47
2018-12-08T07:57:28.795Z,42.13
2018-12-08T07:59:57.390Z,51.83
2018-12-08T08:02:26.018Z,42.67
2018-12-08T08:04:55.206Z,35.97
2018-12-08T08:07:24.092Z,42.47
2018-12-08T08:09:52.718Z,41.13
2018-12-08T08:12:21.350Z,39.80
2018-12-08T08:14:49.985Z,39.13
2018-12-08T08:17:18.615Z,22.27
2018-12-08T08:19:47.234Z,43.73
2018-12-08T08:22:15.897Z,33.47
2018-12-08T08:24:44.566Z,49.23
2018-12-08T08:27:13.216Z,38.17
2018-12-08T08:29:41.820Z,36.83
2018-12-08T08:32:10.469Z,32.63
2018-12-08T08:34:39.110Z,31.73
2018-12-08T08:37:09.555Z,46.10
2018-12-08T08:39:38.365Z,25.87
2018-12-08T08:42:07.027Z,41.23
2018-12-08T08:44:35.676Z,51.73
2018-12-08T08:47:04.352Z,40.47
2018-12-08T08:49:33.025Z,29.93
2018-12-08T08:52:01.711Z,34.13
2018-12-08T08:54:30.382Z,18.93
2018-12-08T08:56:59.033Z,20.03
2018-12-08T08:59:27.746Z,17.60
2018-12-08T09:01:56.410Z,32.93
2018-12-08T09:04:25.128Z,25.37
2018-12-08T09:06:53.797Z,27.47
2018-12-08T09:09:22.475Z,29.23
2018-12-08T09:11:51.160Z,25.30
2018-12-08T09:14:19.792Z,23.27
2018-12-08T09:16:48.489Z,31.20
2018-12-08T09:19:17.113Z,30.00
2018-12-08T09:21:45.777Z,18.97
2018-12-08T09:24:14.482Z,13.70
2018-12-08T09:26:43.138Z,10.17
2018-12-08T09:29:11.816Z,17.70
2018-12-08T09:31:40.463Z,16.97
2018-12-08T09:34:09.115Z,15.00
2018-12-08T09:36:37.826Z,17.90
2018-12-08T09:39:07.694Z,12.37
2018-12-08T09:41:36.402Z,17.80
2018-12-08T09:44:05.616Z,17.50
2018-12-08T09:46:34.291Z,25.27
2018-12-08T09:49:02.977Z,35.03
2018-12-08T09:51:31.631Z,17.07
2018-12-08T09:54:00.266Z,20.93
2018-12-08T09:56:29.016Z,14.10
2018-12-08T09:59:04.919Z,6.90
2018-12-08T10:01:33.579Z,11.80
2018-12-08T10:04:02.200Z,10.93
2018-12-08T10:06:30.842Z,11.97
2018-12-08T10:08:59.445Z,11.47
2018-12-08T10:11:28.050Z,5.37
2018-12-08T10:13:56.704Z,11.63
2018-12-08T10:16:25.333Z,10.23
2018-12-08T10:18:54.010Z,14.73
2018-12-08T10:21:22.645Z,15.47
2018-12-08T10:23:51.262Z,15.93
2018-12-08T10:26:19.902Z,21.70
2018-12-08T10:28:48.558Z,23.00
2018-12-08T10:31:17.203Z,8.03
2018-12-08T10:33:45.946Z,17.37
2018-12-08T10:36:14.575Z,8.97
2018-12-08T10:38:43.226Z,16.50
2018-12-08T10:41:11.865Z,23.77
2018-12-08T10:43:40.530Z,14.93
2018-12-08T10:46:09.167Z,12.87
2018-12-08T10:48:37.804Z,21.47
2018-12-08T10:51:06.439Z,7.13
2018-12-08T10:53:35.066Z,18.60
2018-12-08T10:56:03.738Z,15.23
2018-12-08T10:58:32.372Z,13.73
2018-12-08T11:01:09.529Z,13.63
2018-12-08T11:03:48.045Z,13.63
2018-12-08T11:06:17.079Z,6.53
2018-12-08T11:08:45.999Z,8.30
2018-12-08T11:11:14.651Z,7.17
2018-12-08T11:13:43.290Z,8.63
2018-12-08T11:16:11.962Z,14.70
2018-12-08T11:18:40.575Z,10.70
2018-12-08T11:21:09.198Z,4.30
2018-12-08T11:23:38.508Z,9.70
2018-12-08T11:26:07.229Z,9.37
2018-12-08T11:28:35.854Z,10.37
2018-12-08T11:31:04.511Z,7.57
2018-12-08T11:33:33.383Z,11.00
2018-12-08T11:36:02.018Z,11.93
2018-12-08T11:38:30.653Z,14.83
2018-12-08T11:40:59.290Z,20.90
2018-12-08T11:43:27.929Z,17.07
2018-12-08T11:45:56.578Z,12.77
2018-12-08T11:48:25.193Z,16.33
2018-12-08T11:50:53.841Z,10.00
2018-12-08T11:53:22.454Z,12.40
2018-12-08T11:55:51.094Z,14.37
2018-12-08T11:58:19.727Z,19.10
2018-12-08T12:00:48.399Z,16.63
2018-12-08T12:03:16.988Z,9.73
2018-12-08T12:05:45.629Z,20.80
2018-12-08T12:08:14.274Z,15.00
2018-12-08T12:10:43.658Z,26.90
2018-12-08T12:13:12.430Z,19.50
2018-12-08T12:15:41.079Z,27.07
2018-12-08T12:18:09.675Z,19.67
2018-12-08T12:20:38.313Z,18.97
2018-12-08T12:23:06.917Z,19.20
2018-12-08T12:25:35.677Z,29.97
2018-12-08T12:28:04.567Z,23.83
2018-12-08T12:30:33.341Z,24.90
2018-12-08T12:33:01.962Z,24.83
2018-12-08T12:35:30.602Z,26.57
2018-12-08T12:37:59.226Z,26.73
2018-12-08T12:40:27.843Z,24.47
2018-12-08T12:42:56.469Z,23.13
2018-12-08T12:45:25.111Z,25.40
2018-12-08T12:47:53.739Z,36.23
2018-12-08T12:50:22.396Z,20.83
2018-12-08T12:52:51.011Z,19.97
2018-12-08T12:55:19.665Z,24.33
2018-12-08T12:57:48.303Z,16.87
2018-12-08T13:00:16.937Z,18.37
2018-12-08T13:02:45.593Z,24.13
2018-12-08T13:05:14.225Z,19.30
2018-12-08T13:07:42.830Z,26.87
2018-12-08T13:10:11.473Z,31.83
2018-12-08T13:12:40.102Z,32.63
2018-12-08T13:15:08.766Z,39.87
2018-12-08T13:17:37.506Z,67.20
2018-12-08T13:20:06.139Z,50.10
2018-12-08T13:22:34.867Z,35.97
2018-12-08T13:25:14.636Z,58.97
2018-12-08T13:27:43.281Z,51.23
2018-12-08T13:30:11.934Z,47.17
2018-12-08T13:32:40.565Z,48.00
2018-12-08T13:35:11.395Z,39.07
2018-12-08T13:37:40.007Z,47.00
2018-12-08T13:40:08.658Z,43.23
2018-12-08T13:42:37.290Z,31.87
2018-12-08T13:45:16.058Z,37.30
2018-12-08T13:47:44.978Z,45.73
2018-12-08T13:50:14.057Z,36.57
2018-12-08T13:52:42.720Z,30.43
2018-12-08T13:55:11.573Z,33.67
2018-12-08T13:57:40.223Z,36.07
2018-12-08T14:00:09.892Z,39.50
2018-12-08T14:02:38.517Z,42.70
2018-12-08T14:05:07.810Z,44.57
2018-12-08T14:07:36.427Z,52.40
2018-12-08T14:10:05.862Z,43.50
2018-12-08T14:12:34.810Z,47.67
2018-12-08T14:15:03.694Z,39.47
2018-12-08T14:17:32.314Z,65.53
2018-12-08T14:20:12.087Z,56.50
2018-12-08T14:22:40.702Z,41.67
2018-12-08T14:25:09.341Z,54.23
2018-12-08T14:27:37.969Z,61.03
2018-12-08T14:30:06.894Z,73.37
2018-12-08T14:32:35.526Z,54.30
2018-12-08T14:35:04.426Z,40.53
2018-12-08T14:37:33.093Z,46.93
2018-12-08T14:40:01.752Z,62.30
2018-12-08T14:42:30.400Z,38.97
2018-12-08T14:44:59.042Z,51.60
2018-12-08T14:47:27.822Z,55.33
2018-12-08T14:49:56.463Z,52.27
2018-12-08T14:52:25.108Z,53.07
2018-12-08T14:54:53.745Z,53.77
2018-12-08T14:57:22.370Z,46.40
2018-12-08T14:59:51.137Z,50.47
2018-12-08T15:02:19.758Z,58.70
2018-12-08T15:04:48.399Z,45.90
2018-12-08T15:07:17.020Z,43.43
2018-12-08T15:09:45.673Z,45.27
2018-12-08T15:12:14.314Z,67.87
2018-12-08T15:14:42.950Z,40.47
2018-12-08T15:17:11.590Z,50.70
2018-12-08T15:19:40.239Z,49.93
2018-12-08T15:22:08.881Z,49.30
2018-12-08T15:24:37.531Z,60.60
2018-12-08T15:27:06.306Z,51.37
2018-12-08T15:29:34.936Z,60.67
2018-12-08T15:32:03.920Z,57.97
2018-12-08T15:34:32.518Z,53.27
2018-12-08T15:37:01.181Z,41.13
2018-12-08T15:39:30.319Z,57.20
2018-12-08T15:41:58.951Z,60.53
2018-12-08T15:44:27.602Z,70.50
2018-12-08T15:46:56.235Z,86.47
2018-12-08T15:49:24.914Z,80.30
2018-12-08T15:51:57.154Z,66.20
2018-12-08T15:54:25.802Z,66.57
2018-12-08T15:56:54.421Z,61.00
2018-12-08T15:59:23.051Z,30.53
2018-12-08T16:01:51.682Z,40.80
2018-12-08T16:04:20.404Z,25.27
2018-12-08T16:06:49.261Z,45.70
2018-12-08T16:09:17.936Z,37.50
2018-12-08T16:11:46.626Z,33.00
2018-12-08T16:14:15.418Z,46.10
2018-12-08T16:16:44.072Z,57.33
2018-12-08T16:19:12.735Z,45.13
2018-12-08T16:21:41.410Z,42.30
2018-12-08T16:24:10.094Z,60.83
2018-12-08T16:26:38.740Z,58.37
2018-12-08T16:29:07.466Z,65.47
2018-12-08T16:31:36.306Z,57.80
2018-12-08T16:34:05.266Z,53.03
2018-12-08T16:36:35.636Z,56.33
2018-12-08T16:39:07.044Z,60.40
2018-12-08T16:41:35.951Z,63.57
2018-12-08T16:44:04.739Z,53.67
2018-12-08T16:46:33.674Z,49.33
2018-12-08T16:49:03.054Z,45.77
2018-12-08T16:51:31.803Z,70.47
2018-12-08T16:54:00.542Z,46.23
2018-12-08T16:56:29.866Z,72.97
2018-12-08T16:58:58.590Z,51.10
2018-12-08T17:01:27.476Z,55.67
2018-12-08T17:03:56.299Z,45.47
2018-12-08T17:06:24.988Z,39.13
2018-12-08T17:08:53.606Z,44.63
2018-12-08T17:11:22.258Z,48.27
2018-12-08T17:13:50.920Z,46.83
2018-12-08T17:16:19.586Z,38.57
2018-12-08T17:18:48.292Z,39.70
2018-12-08T17:21:16.962Z,50.70
2018-12-08T17:23:45.613Z,60.40
2018-12-08T17:26:14.258Z,52.27
2018-12-08T17:28:42.887Z,51.63
2018-12-08T17:31:11.498Z,37.70
2018-12-08T17:33:40.108Z,58.37
2018-12-08T17:36:08.940Z,43.40
2018-12-08T17:38:37.624Z,53.40
2018-12-08T17:41:06.270Z,31.50
2018-12-08T17:43:34.925Z,40.47
2018-12-08T17:46:03.587Z,27.70
2018-12-08T17:48:32.216Z,35.10
2018-12-08T17:51:00.878Z,26.23
2018-12-08T17:53:29.500Z,29.93
2018-12-08T17:55:58.149Z,27.03
2018-12-08T17:58:26.794Z,25.33
2018-12-08T18:00:55.597Z,31.67
2018-12-08T18:03:24.294Z,32.53
2018-12-08T18:05:53.015Z,32.53
2018-12-08T18:08:21.717Z,31.00
2018-12-08T18:10:50.350Z,44.73
2018-12-08T18:13:18.969Z,35.67
2018-12-08T18:15:47.851Z,42.67
2018-12-08T18:18:16.845Z,41.33
2018-12-08T18:20:45.596Z,37.60
2018-12-08T18:23:14.242Z,36.60
2018-12-08T18:25:42.918Z,31.67
2018-12-08T18:28:11.569Z,31.63
2018-12-08T18:30:40.233Z,30.17
2018-12-08T18:33:09.022Z,28.27
2018-12-08T18:35:37.676Z,32.73
2018-12-08T18:38:06.395Z,36.17
2018-12-08T18:40:35.179Z,45.83
2018-12-08T18:43:03.858Z,33.77
2018-12-08T18:45:32.533Z,34.57
2018-12-08T18:48:01.179Z,31.33
2018-12-08T18:50:29.843Z,41.67
2018-12-08T18:52:58.497Z,43.53
2018-12-08T18:55:27.139Z,35.77
2018-12-08T18:57:55.795Z,32.13
2018-12-08T19:00:24.453Z,48.40
2018-12-08T19:02:53.127Z,42.03
2018-12-08T19:05:22.798Z,41.43
2018-12-08T19:07:51.468Z,40.00
2018-12-08T19:10:20.147Z,36.30
2018-12-08T19:12:48.762Z,45.03
2018-12-08T19:15:17.434Z,30.73
2018-12-08T19:17:46.102Z,40.83
2018-12-08T19:20:14.754Z,45.63
2018-12-08T19:22:43.450Z,44.37
2018-12-08T19:25:12.117Z,44.67
2018-12-08T19:27:40.769Z,35.00
2018-12-08T19:30:10.574Z,25.57
2018-12-08T19:32:39.274Z,24.67
2018-12-08T19:35:08.118Z,37.33
2018-12-08T19:37:37.006Z,32.10
2018-12-08T19:40:06.536Z,29.67
2018-12-08T19:42:35.165Z,39.30
2018-12-08T19:45:03.950Z,25.30
2018-12-08T19:47:32.595Z,26.93
2018-12-08T19:50:01.245Z,27.13
2018-12-08T19:52:29.871Z,32.93
2018-12-08T19:54:58.525Z,37.00
2018-12-08T19:57:27.171Z,31.97
2018-12-08T19:59:55.791Z,37.87
2018-12-08T20:02:24.453Z,35.70
2018-12-08T20:04:53.093Z,34.77
2018-12-08T20:07:21.760Z,27.93
2018-12-08T20:09:50.438Z,40.23
2018-12-08T20:12:19.208Z,35.30
2018-12-08T20:14:47.883Z,35.97
2018-12-08T20:17:16.547Z,36.93
2018-12-08T20:19:45.194Z,35.57
2018-12-08T20:22:13.956Z,31.20
2018-12-08T20:24:43.478Z,50.40
2018-12-08T20:27:12.181Z,36.80
2018-12-08T20:29:40.881Z,39.37
2018-12-08T20:32:10.286Z,42.07
2018-12-08T20:34:39.412Z,34.90
2018-12-08T20:37:08.672Z,50.27
2018-12-08T20:39:38.831Z,31.67
2018-12-08T20:42:07.506Z,36.97
2018-12-08T20:44:36.313Z,38.03
2018-12-08T20:47:05.296Z,15.60
2018-12-08T20:49:34.005Z,17.27
2018-12-08T20:52:02.689Z,15.80
2018-12-08T20:54:31.468Z,29.50
2018-12-08T20:57:00.135Z,31.73
2018-12-08T20:59:28.750Z,32.23
2018-12-08T21:01:57.633Z,21.73
2018-12-08T21:04:26.279Z,16.87
2018-12-08T21:06:54.940Z,19.90
2018-12-08T21:09:23.593Z,28.37
2018-12-08T21:11:52.268Z,23.87
2018-12-08T21:14:20.875Z,31.73
2018-12-08T21:16:49.470Z,31.40
2018-12-08T21:19:18.343Z,31.00
2018-12-08T21:21:46.993Z,33.37
2018-12-08T21:24:15.779Z,34.23
2018-12-08T21:26:44.991Z,31.70
2018-12-08T21:29:14.805Z,17.47
2018-12-08T21:31:43.685Z,32.17
2018-12-08T21:34:13.211Z,35.73
2018-12-08T21:36:41.928Z,39.10
2018-12-08T21:39:10.654Z,26.67
2018-12-08T21:41:39.334Z,33.80
2018-12-08T21:44:08.016Z,48.00
2018-12-08T21:46:36.781Z,42.40
2018-12-08T21:49:05.420Z,41.63
2018-12-08T21:51:34.119Z,46.60
2018-12-08T21:54:02.743Z,30.37
2018-12-08T21:56:31.350Z,26.70
2018-12-08T21:58:59.977Z,36.97
2018-12-08T22:01:28.799Z,35.07
2018-12-08T22:03:57.442Z,36.93
2018-12-08T22:06:26.078Z,33.40
2018-12-08T22:08:54.783Z,21.07
2018-12-08T22:11:23.430Z,27.87
2018-12-08T22:13:52.068Z,41.23
2018-12-08T22:16:20.690Z,25.97
2018-12-08T22:18:49.447Z,23.80
2018-12-08T22:21:18.087Z,24.93
2018-12-08T22:23:46.732Z,28.27
2018-12-08T22:26:15.338Z,32.93
2018-12-08T22:28:44.002Z,38.03
2018-12-08T22:31:12.642Z,52.33
2018-12-08T22:33:41.302Z,33.57
2018-12-08T22:36:09.930Z,39.73
2018-12-08T22:38:38.568Z,53.70
2018-12-08T22:41:07.183Z,50.67
2018-12-08T22:43:35.803Z,42.77
2018-12-08T22:46:04.506Z,52.57
2018-12-08T22:48:33.950Z,41.23
2018-12-08T22:51:02.781Z,43.07
2018-12-08T22:53:31.403Z,55.00
2018-12-08T22:56:00.025Z,46.57
2018-12-08T22:58:28.644Z,34.43
2018-12-08T23:00:57.298Z,32.63
2018-12-08T23:03:25.926Z,29.50
2018-12-08T23:05:54.538Z,24.07
2018-12-08T23:08:23.146Z,33.87
2018-12-08T23:10:51.762Z,39.37
2018-12-08T23:13:20.562Z,39.20
2018-12-08T23:15:49.181Z,34.33
2018-12-08T23:18:18.436Z,40.27
2018-12-08T23:20:47.061Z,28.20
2018-12-08T23:23:15.667Z,40.37
2018-12-08T23:25:44.298Z,34.90
2018-12-08T23:28:12.939Z,44.23
2018-12-08T23:30:41.560Z,37.30
2018-12-08T23:33:10.186Z,45.73
2018-12-08T23:35:38.975Z,49.83
2018-12-08T23:38:07.596Z,38.87
2018-12-08T23:40:36.236Z,32.00
2018-12-08T23:43:04.838Z,32.77
2018-12-08T23:45:33.491Z,28.10
2018-12-08T23:48:02.155Z,42.50
2018-12-08T23:50:30.811Z,35.47
2018-12-08T23:52:59.429Z,30.27
2018-12-08T23:55:28.076Z,45.30
2018-12-08T23:57:56.691Z,39.30
